Time;durP1;ratioP1;P1;durP2;ratioP2;P2;SDS_P1;SDS_P2;PMS_P1;PMS_P2;Temp;Humidity;BMP_temperature;BMP_pressure;BME280_temperature;BME280_humidity;BME280_pressure;Samples;Min_cycle;Max_cycle;Signal;HPM_P1;HPM_P2
2020/12/21 00:02:21;;;;;;;43.40;28.58;;;;;;;;;;5055039;28;20021;-67
2020/12/21 00:04:47;;;;;;;44.67;28.48;;;;;;;;;;5054848;28;20033;-67
2020/12/21 00:07:13;;;;;;;55.28;34.30;;;;;;;;;;5055088;28;20032;-67
2020/12/21 00:09:39;;;;;;;51.63;30.90;;;;;;;;;;5054884;28;20025;-67
2020/12/21 00:12:05;;;;;;;44.00;29.85;;;;;;;;;;5055111;28;20186;-67
2020/12/21 00:14:31;;;;;;;49.35;29.67;;;;;;;;;;5054778;28;20122;-67
2020/12/21 00:16:57;;;;;;;45.70;29.35;;;;;;;;;;5055080;28;20025;-67
2020/12/21 00:19:24;;;;;;;44.90;27.50;;;;;;;;;;5055101;28;20418;-67
2020/12/21 00:21:51;;;;;;;47.85;28.60;;;;;;;;;;5054732;28;20048;-67
2020/12/21 00:24:17;;;;;;;42.55;25.92;;;;;;;;;;5054621;28;20512;-67
2020/12/21 00:26:44;;;;;;;47.35;28.17;;;;;;;;;;5054585;28;20037;-67
2020/12/21 00:29:10;;;;;;;45.60;28.77;;;;;;;;;;5054512;28;20036;-67
2020/12/21 00:31:37;;;;;;;38.60;25.65;;;;;;;;;;5054257;28;20056;-67
2020/12/21 00:34:04;;;;;;;43.28;25.90;;;;;;;;;;5054761;28;20104;-67
2020/12/21 00:36:30;;;;;;;36.42;24.55;;;;;;;;;;5054427;28;20025;-67
2020/12/21 00:38:56;;;;;;;38.63;25.00;;;;;;;;;;5054396;28;20036;-67
2020/12/21 00:41:23;;;;;;;41.10;25.75;;;;;;;;;;5054334;28;20025;-67
2020/12/21 00:43:50;;;;;;;38.30;23.55;;;;;;;;;;5053650;28;20477;-67
2020/12/21 00:46:17;;;;;;;36.83;23.80;;;;;;;;;;5054198;28;20528;-68
2020/12/21 00:48:44;;;;;;;34.78;24.30;;;;;;;;;;5054506;28;20024;-67
2020/12/21 00:51:11;;;;;;;41.55;25.77;;;;;;;;;;5054247;28;20036;-67
2020/12/21 00:53:37;;;;;;;40.47;26.08;;;;;;;;;;5054425;28;20409;-67
2020/12/21 00:56:06;;;;;;;44.22;26.30;;;;;;;;;;5053961;28;20414;-67
2020/12/21 00:58:34;;;;;;;38.55;24.67;;;;;;;;;;5036156;28;20032;-67
2020/12/21 01:01:00;;;;;;;41.17;24.58;;;;;;;;;;5053948;28;20421;-67
2020/12/21 01:03:26;;;;;;;38.35;26.65;;;;;;;;;;5053866;28;20028;-67
2020/12/21 01:05:56;;;;;;;44.25;27.45;;;;;;;;;;5053779;28;20033;-67
2020/12/21 01:08:22;;;;;;;48.75;29.33;;;;;;;;;;5054071;28;20091;-67
2020/12/21 01:10:48;;;;;;;43.45;28.85;;;;;;;;;;5053860;28;20449;-67
2020/12/21 01:13:14;;;;;;;45.58;28.75;;;;;;;;;;5054046;28;20048;-67
2020/12/21 01:15:41;;;;;;;43.58;28.48;;;;;;;;;;5053623;28;20408;-67
2020/12/21 01:18:07;;;;;;;43.60;28.50;;;;;;;;;;5053692;28;20025;-67
2020/12/21 01:20:33;;;;;;;44.28;28.08;;;;;;;;;;5053666;28;20049;-67
2020/12/21 01:22:59;;;;;;;47.97;29.45;;;;;;;;;;5053487;28;20025;-67
2020/12/21 01:25:25;;;;;;;46.13;29.20;;;;;;;;;;5053526;28;20040;-67
2020/12/21 01:27:51;;;;;;;44.85;28.90;;;;;;;;;;5053436;28;20115;-67
2020/12/21 01:30:17;;;;;;;43.75;27.83;;;;;;;;;;5053094;28;20124;-67
2020/12/21 01:32:43;;;;;;;50.00;31.20;;;;;;;;;;5053537;28;20496;-67
2020/12/21 01:35:10;;;;;;;43.15;28.63;;;;;;;;;;5053600;28;20103;-67
2020/12/21 01:37:36;;;;;;;43.92;27.98;;;;;;;;;;5053254;28;20100;-67
2020/12/21 01:40:04;;;;;;;41.72;27.25;;;;;;;;;;5053458;28;20049;-67
2020/12/21 01:42:30;;;;;;;42.50;27.38;;;;;;;;;;5053114;28;20029;-67
2020/12/21 01:44:56;;;;;;;41.58;26.65;;;;;;;;;;5053444;28;20059;-67
2020/12/21 01:47:22;;;;;;;39.97;25.85;;;;;;;;;;5053428;28;20029;-67
2020/12/21 01:49:49;;;;;;;46.42;25.65;;;;;;;;;;5053616;28;20413;-67
2020/12/21 01:52:16;;;;;;;41.53;26.83;;;;;;;;;;5052938;28;20033;-67
2020/12/21 01:54:43;;;;;;;44.22;26.92;;;;;;;;;;5053234;28;20032;-67
2020/12/21 01:57:09;;;;;;;43.65;27.33;;;;;;;;;;5052927;28;20021;-67
2020/12/21 01:59:35;;;;;;;41.75;27.13;;;;;;;;;;5053101;28;20040;-67
2020/12/21 02:02:01;;;;;;;41.63;27.02;;;;;;;;;;5053006;28;20148;-67
2020/12/21 02:04:27;;;;;;;44.45;27.98;;;;;;;;;;5052823;28;20380;-67
2020/12/21 02:06:54;;;;;;;42.55;28.30;;;;;;;;;;5052975;28;20029;-67
2020/12/21 02:09:21;;;;;;;43.42;28.63;;;;;;;;;;5052852;28;20025;-67
2020/12/21 02:11:47;;;;;;;43.50;28.73;;;;;;;;;;5052842;28;20052;-67
2020/12/21 02:14:13;;;;;;;44.00;27.80;;;;;;;;;;5052983;28;20075;-68
2020/12/21 02:16:39;;;;;;;42.80;27.85;;;;;;;;;;5053062;28;20064;-67
2020/12/21 02:19:05;;;;;;;42.88;28.08;;;;;;;;;;5052993;28;20034;-67
2020/12/21 02:21:31;;;;;;;42.63;29.20;;;;;;;;;;5052781;28;20047;-66
2020/12/21 02:23:57;;;;;;;42.90;27.05;;;;;;;;;;5052852;28;20037;-66
2020/12/21 02:26:24;;;;;;;42.50;26.85;;;;;;;;;;5052752;28;20040;-66
2020/12/21 02:28:53;;;;;;;42.42;26.70;;;;;;;;;;5053081;28;20413;-67
2020/12/21 02:31:19;;;;;;;42.95;28.17;;;;;;;;;;5052543;28;20107;-67
2020/12/21 02:33:46;;;;;;;46.42;28.90;;;;;;;;;;5052724;28;20032;-67
2020/12/21 02:36:12;;;;;;;44.13;27.75;;;;;;;;;;5052787;28;20092;-67
2020/12/21 02:38:39;;;;;;;42.80;28.38;;;;;;;;;;5034946;28;20187;-67
2020/12/21 02:41:05;;;;;;;41.58;27.88;;;;;;;;;;5052694;28;20029;-67
2020/12/21 02:43:31;;;;;;;43.00;28.25;;;;;;;;;;5052687;28;20112;-67
2020/12/21 02:45:57;;;;;;;45.00;28.30;;;;;;;;;;5052627;28;20033;-67
2020/12/21 02:48:24;;;;;;;41.63;28.63;;;;;;;;;;5052551;28;20095;-67
2020/12/21 02:50:50;;;;;;;39.10;26.45;;;;;;;;;;5052503;28;20025;-67
2020/12/21 02:53:16;;;;;;;39.10;26.40;;;;;;;;;;5052486;28;20029;-67
2020/12/21 02:55:43;;;;;;;44.10;27.05;;;;;;;;;;5052644;28;20025;-67
2020/12/21 02:58:09;;;;;;;41.58;26.27;;;;;;;;;;5052507;28;20155;-67
2020/12/21 03:00:36;;;;;;;46.72;26.77;;;;;;;;;;5052538;28;20043;-67
2020/12/21 03:03:06;;;;;;;37.30;25.40;;;;;;;;;;5052735;28;20465;-66
2020/12/21 03:05:33;;;;;;;38.85;26.00;;;;;;;;;;5052504;28;20037;-66
2020/12/21 03:08:00;;;;;;;41.13;25.67;;;;;;;;;;5055966;28;20374;-66
2020/12/21 03:10:27;;;;;;;43.80;26.60;;;;;;;;;;5056156;28;20036;-66
2020/12/21 03:12:53;;;;;;;39.88;26.02;;;;;;;;;;5056007;28;20028;-66
2020/12/21 03:15:20;;;;;;;51.10;28.08;;;;;;;;;;5056165;28;20025;-66
2020/12/21 03:17:46;;;;;;;45.50;27.73;;;;;;;;;;5055938;28;20028;-66
2020/12/21 03:20:12;;;;;;;44.78;26.98;;;;;;;;;;5055926;28;20458;-66
2020/12/21 03:22:38;;;;;;;45.90;28.90;;;;;;;;;;5055699;28;20021;-66
2020/12/21 03:25:06;;;;;;;51.10;31.23;;;;;;;;;;5055648;28;20044;-67
2020/12/21 03:27:32;;;;;;;56.75;31.83;;;;;;;;;;5055914;28;20021;-66
2020/12/21 03:29:58;;;;;;;47.88;28.98;;;;;;;;;;5055879;28;20033;-66
2020/12/21 03:32:24;;;;;;;48.17;29.65;;;;;;;;;;5055582;28;20378;-66
2020/12/21 03:34:52;;;;;;;45.00;27.80;;;;;;;;;;5055931;28;20048;-66
2020/12/21 03:37:18;;;;;;;46.63;28.52;;;;;;;;;;5055470;28;20029;-66
2020/12/21 03:39:45;;;;;;;44.95;28.10;;;;;;;;;;5055610;28;20025;-67
2020/12/21 03:42:11;;;;;;;43.03;28.08;;;;;;;;;;5055482;28;20035;-66
2020/12/21 03:44:37;;;;;;;43.72;27.98;;;;;;;;;;5055339;28;20104;-66
2020/12/21 03:47:03;;;;;;;45.20;28.02;;;;;;;;;;5055588;28;20364;-66
2020/12/21 03:49:29;;;;;;;51.00;30.38;;;;;;;;;;5055325;28;20092;-66
2020/12/21 03:51:55;;;;;;;48.60;29.48;;;;;;;;;;5055208;28;20194;-67
2020/12/21 03:54:22;;;;;;;44.92;29.83;;;;;;;;;;5055230;28;20067;-66
2020/12/21 03:56:48;;;;;;;45.53;30.65;;;;;;;;;;5037467;28;20406;-66
2020/12/21 03:59:14;;;;;;;47.88;30.83;;;;;;;;;;5055067;28;20025;-66
2020/12/21 04:01:40;;;;;;;46.03;30.67;;;;;;;;;;5055222;28;20025;-66
2020/12/21 04:04:07;;;;;;;50.55;31.73;;;;;;;;;;5055241;28;20021;-66
2020/12/21 04:06:34;;;;;;;49.38;32.97;;;;;;;;;;5055005;28;20025;-66
2020/12/21 04:09:00;;;;;;;51.42;32.30;;;;;;;;;;5054869;28;20159;-66
2020/12/21 04:11:26;;;;;;;52.20;31.70;;;;;;;;;;5054953;28;20035;-66
2020/12/21 04:13:52;;;;;;;49.28;32.42;;;;;;;;;;5054848;28;20063;-66
2020/12/21 04:16:18;;;;;;;52.05;33.58;;;;;;;;;;5055048;28;20421;-66
2020/12/21 04:18:45;;;;;;;54.15;34.35;;;;;;;;;;5053621;28;20100;-66
2020/12/21 04:21:14;;;;;;;49.33;33.90;;;;;;;;;;5054828;28;20025;-66
2020/12/21 04:23:40;;;;;;;50.95;34.17;;;;;;;;;;5054738;28;20025;-65
2020/12/21 04:26:06;;;;;;;52.72;33.60;;;;;;;;;;5054665;28;20512;-66
2020/12/21 04:28:33;;;;;;;51.90;34.75;;;;;;;;;;5054413;28;20025;-65
2020/12/21 04:31:03;;;;;;;52.38;34.15;;;;;;;;;;5054706;28;20506;-65
2020/12/21 04:33:30;;;;;;;57.35;35.03;;;;;;;;;;5054385;28;20100;-66
2020/12/21 04:35:56;;;;;;;52.30;33.03;;;;;;;;;;5054775;28;20112;-66
2020/12/21 04:38:22;;;;;;;52.72;34.58;;;;;;;;;;5054544;28;20020;-65
2020/12/21 04:40:58;;;;;;;54.58;34.90;;;;;;;;;;5054349;28;20029;-66
2020/12/21 04:43:24;;;;;;;56.05;36.70;;;;;;;;;;5036479;28;20025;-65
2020/12/21 04:45:53;;;;;;;57.35;37.00;;;;;;;;;;5054412;28;20394;-66
2020/12/21 04:48:21;;;;;;;57.05;36.72;;;;;;;;;;5054136;28;20108;-66
2020/12/21 04:50:47;;;;;;;65.35;38.38;;;;;;;;;;5054270;28;20028;-66
2020/12/21 04:53:13;;;;;;;68.43;37.22;;;;;;;;;;5054053;28;20040;-66
2020/12/21 04:55:41;;;;;;;61.25;39.17;;;;;;;;;;5054152;28;20025;-66
2020/12/21 04:58:07;;;;;;;61.95;39.03;;;;;;;;;;5053995;28;20107;-66
2020/12/21 05:00:33;;;;;;;60.97;38.10;;;;;;;;;;5054307;28;20116;-66
2020/12/21 05:03:00;;;;;;;60.35;40.38;;;;;;;;;;5054022;28;20087;-66
2020/12/21 05:05:36;;;;;;;61.38;38.25;;;;;;;;;;5054011;28;20068;-66
2020/12/21 05:08:08;;;;;;;59.47;38.35;;;;;;;;;;5053872;28;20493;-66
2020/12/21 05:10:36;;;;;;;63.33;37.53;;;;;;;;;;5053981;28;20036;-66
2020/12/21 05:13:03;;;;;;;63.50;37.42;;;;;;;;;;5053772;28;20024;-65
2020/12/21 05:15:29;;;;;;;62.75;36.78;;;;;;;;;;5053675;28;20025;-66
2020/12/21 05:18:11;;;;;;;59.65;35.70;;;;;;;;;;5053897;28;20386;-65
2020/12/21 05:20:38;;;;;;;63.10;38.00;;;;;;;;;;5053519;28;20033;-65
2020/12/21 05:23:06;;;;;;;55.83;36.80;;;;;;;;;;5053879;28;20441;-65
2020/12/21 05:25:32;;;;;;;63.38;36.78;;;;;;;;;;5053461;28;20032;-65
2020/12/21 05:28:08;;;;;;;60.25;37.65;;;;;;;;;;5053564;28;20482;-65
2020/12/21 05:30:34;;;;;;;56.67;35.60;;;;;;;;;;5053088;28;20068;-65
2020/12/21 05:33:01;;;;;;;60.50;37.63;;;;;;;;;;5053448;28;20013;-65
2020/12/21 05:35:29;;;;;;;58.60;36.53;;;;;;;;;;5053311;28;20029;-65
2020/12/21 05:37:56;;;;;;;61.35;36.15;;;;;;;;;;5053583;28;20552;-66
2020/12/21 05:40:25;;;;;;;60.33;35.97;;;;;;;;;;5053387;28;20112;-65
2020/12/21 05:42:52;;;;;;;62.10;36.55;;;;;;;;;;5053224;28;20029;-65
2020/12/21 05:45:18;;;;;;;61.35;35.97;;;;;;;;;;5053204;28;20040;-65
2020/12/21 05:47:47;;;;;;;61.28;35.67;;;;;;;;;;5053213;28;20028;-65
2020/12/21 05:50:19;;;;;;;59.75;34.55;;;;;;;;;;5053338;28;20024;-65
2020/12/21 05:52:45;;;;;;;64.90;37.85;;;;;;;;;;5035365;28;20029;-65
2020/12/21 05:55:11;;;;;;;60.80;36.70;;;;;;;;;;5053118;28;20025;-65
2020/12/21 05:57:38;;;;;;;58.78;36.75;;;;;;;;;;5053136;28;20076;-65
2020/12/21 06:00:06;;;;;;;69.15;39.05;;;;;;;;;;5052933;28;20033;-65
2020/12/21 06:02:32;;;;;;;61.20;35.80;;;;;;;;;;5053135;28;20108;-65
2020/12/21 06:05:03;;;;;;;63.65;37.05;;;;;;;;;;5052912;28;20025;-65
2020/12/21 06:07:32;;;;;;;61.65;38.90;;;;;;;;;;5053079;28;20493;-65
2020/12/21 06:09:59;;;;;;;62.83;38.20;;;;;;;;;;5052898;28;20474;-65
2020/12/21 06:12:26;;;;;;;62.40;39.15;;;;;;;;;;5053014;28;20025;-65
2020/12/21 06:14:54;;;;;;;63.35;38.90;;;;;;;;;;5052933;28;20024;-65
2020/12/21 06:17:20;;;;;;;71.03;40.97;;;;;;;;;;5053136;28;20035;-65
2020/12/21 06:19:46;;;;;;;65.65;39.78;;;;;;;;;;5053105;28;20115;-65
2020/12/21 06:22:23;;;;;;;66.13;39.50;;;;;;;;;;5052811;28;20040;-65
2020/12/21 06:24:50;;;;;;;60.83;38.10;;;;;;;;;;5053054;28;20041;-65
2020/12/21 06:27:16;;;;;;;63.40;37.10;;;;;;;;;;5052891;28;20029;-65
2020/12/21 06:29:42;;;;;;;62.60;37.65;;;;;;;;;;5052402;28;20116;-65
2020/12/21 06:32:10;;;;;;;61.05;37.28;;;;;;;;;;5052997;28;20108;-65
2020/12/21 06:34:37;;;;;;;67.25;42.20;;;;;;;;;;5052559;28;20037;-65
2020/12/21 06:37:06;;;;;;;61.78;41.50;;;;;;;;;;5052948;28;20056;-65
2020/12/21 06:39:33;;;;;;;65.20;40.28;;;;;;;;;;5052665;28;20474;-65
2020/12/21 06:42:04;;;;;;;55.63;37.25;;;;;;;;;;5054795;28;20466;-65
2020/12/21 06:44:31;;;;;;;63.38;39.17;;;;;;;;;;5056767;28;20039;-65
2020/12/21 06:46:58;;;;;;;63.50;39.30;;;;;;;;;;5056322;28;20036;-66
2020/12/21 06:49:24;;;;;;;64.45;38.22;;;;;;;;;;5056485;28;20025;-66
2020/12/21 06:51:51;;;;;;;62.58;38.80;;;;;;;;;;5056381;28;20024;-65
2020/12/21 06:54:17;;;;;;;69.93;39.13;;;;;;;;;;5056359;28;20490;-65
2020/12/21 06:56:44;;;;;;;70.50;41.30;;;;;;;;;;5056201;28;20423;-66
2020/12/21 06:59:24;;;;;;;58.22;36.60;;;;;;;;;;5056249;28;20055;-66
2020/12/21 07:01:51;;;;;;;62.67;38.00;;;;;;;;;;5056277;28;20013;-66
2020/12/21 07:04:18;;;;;;;62.95;37.95;;;;;;;;;;5056153;28;20029;-66
2020/12/21 07:06:48;;;;;;;62.13;38.92;;;;;;;;;;5055897;28;20043;-66
2020/12/21 07:09:15;;;;;;;61.88;39.92;;;;;;;;;;5038203;28;20021;-66
2020/12/21 07:11:43;;;;;;;70.88;41.55;;;;;;;;;;5056008;28;20029;-66
2020/12/21 07:14:13;;;;;;;71.47;43.42;;;;;;;;;;5055975;28;20025;-66
2020/12/21 07:16:39;;;;;;;82.32;45.42;;;;;;;;;;5055900;28;20112;-66
2020/12/21 07:19:05;;;;;;;61.08;35.10;;;;;;;;;;5055842;28;20180;-66
2020/12/21 07:21:31;;;;;;;61.47;32.85;;;;;;;;;;5055724;28;20033;-66
2020/12/21 07:23:58;;;;;;;58.00;32.92;;;;;;;;;;5055803;28;20474;-66
2020/12/21 07:26:25;;;;;;;57.70;33.75;;;;;;;;;;5055823;28;20040;-66
2020/12/21 07:28:51;;;;;;;54.38;31.55;;;;;;;;;;5056045;28;20087;-67
2020/12/21 07:31:18;;;;;;;55.35;31.25;;;;;;;;;;5055520;28;20106;-67
2020/12/21 07:33:52;;;;;;;57.45;32.35;;;;;;;;;;5055560;28;20083;-67
2020/12/21 07:36:18;;;;;;;51.72;31.70;;;;;;;;;;5054567;28;20029;-66
2020/12/21 07:38:45;;;;;;;56.60;32.45;;;;;;;;;;5054665;28;20029;-66
2020/12/21 07:41:11;;;;;;;64.47;32.45;;;;;;;;;;5037441;28;20025;-66
2020/12/21 07:43:50;;;;;;;54.08;32.08;;;;;;;;;;5055153;28;20064;-66
2020/12/21 07:46:21;;;;;;;62.05;34.97;;;;;;;;;;5055087;28;20159;-65
2020/12/21 07:48:48;;;;;;;60.13;33.80;;;;;;;;;;5055454;28;20530;-65
2020/12/21 07:51:15;;;;;;;57.42;34.40;;;;;;;;;;5055395;28;20427;-65
2020/12/21 07:53:42;;;;;;;62.70;35.78;;;;;;;;;;5054989;28;20036;-65
2020/12/21 07:56:13;;;;;;;68.43;37.80;;;;;;;;;;5055079;28;20486;-66
2020/12/21 07:58:39;;;;;;;72.22;38.17;;;;;;;;;;5053838;28;20547;-65
2020/12/21 08:01:06;;;;;;;68.13;38.25;;;;;;;;;;5054285;28;20264;-66
2020/12/21 08:03:32;;;;;;;73.93;40.38;;;;;;;;;;5054787;28;20021;-66
2020/12/21 08:06:04;;;;;;;62.45;39.60;;;;;;;;;;5054613;28;20041;-65
2020/12/21 08:08:31;;;;;;;71.90;41.38;;;;;;;;;;5054976;28;20359;-66
2020/12/21 08:11:00;;;;;;;74.35;45.85;;;;;;;;;;5054741;28;20032;-64
2020/12/21 08:13:26;;;;;;;75.32;45.50;;;;;;;;;;5054660;28;20103;-64
2020/12/21 08:15:53;;;;;;;81.32;47.33;;;;;;;;;;5054492;28;20033;-63
2020/12/21 08:18:19;;;;;;;69.47;42.83;;;;;;;;;;5054839;28;20028;-66
2020/12/21 08:20:52;;;;;;;72.88;41.95;;;;;;;;;;5054598;28;20029;-66
2020/12/21 08:23:22;;;;;;;80.40;40.75;;;;;;;;;;5054882;28;20393;-66
2020/12/21 08:25:48;;;;;;;68.97;39.15;;;;;;;;;;5054113;28;20047;-66
2020/12/21 08:28:23;;;;;;;65.18;38.95;;;;;;;;;;5054555;28;20021;-64
2020/12/21 08:30:49;;;;;;;73.35;40.42;;;;;;;;;;5054122;28;20056;-65
2020/12/21 08:33:16;;;;;;;64.13;36.53;;;;;;;;;;5054503;28;20021;-66
2020/12/21 08:35:42;;;;;;;63.13;38.45;;;;;;;;;;5053658;28;20029;-65
2020/12/21 08:38:14;;;;;;;72.35;35.72;;;;;;;;;;5054276;28;20073;-66
2020/12/21 08:40:40;;;;;;;58.97;33.83;;;;;;;;;;5054545;28;20428;-66
2020/12/21 08:43:06;;;;;;;81.15;37.45;;;;;;;;;;5054374;28;20017;-64
2020/12/21 08:45:35;;;;;;;69.63;37.40;;;;;;;;;;5053135;28;20389;-63
2020/12/21 08:48:02;;;;;;;62.80;37.67;;;;;;;;;;5053957;28;20063;-64
2020/12/21 08:50:28;;;;;;;69.88;37.22;;;;;;;;;;5054068;28;20033;-63
2020/12/21 08:52:54;;;;;;;57.28;35.30;;;;;;;;;;5054197;28;20017;-63
2020/12/21 08:55:20;;;;;;;61.70;33.17;;;;;;;;;;5036091;28;20390;-63
2020/12/21 08:57:46;;;;;;;56.38;33.10;;;;;;;;;;5053882;28;20028;-64
2020/12/21 09:00:13;;;;;;;53.58;32.08;;;;;;;;;;5053931;28;20561;-65
2020/12/21 09:02:39;;;;;;;63.40;37.35;;;;;;;;;;5053849;28;20120;-65
2020/12/21 09:05:05;;;;;;;62.95;38.58;;;;;;;;;;5053377;28;20119;-65
2020/12/21 09:07:32;;;;;;;72.03;42.90;;;;;;;;;;5036149;28;20032;-65
2020/12/21 09:09:58;;;;;;;70.68;46.03;;;;;;;;;;5053356;28;20035;-64
2020/12/21 09:12:25;;;;;;;72.60;47.13;;;;;;;;;;5053634;28;20037;-65
2020/12/21 09:14:51;;;;;;;78.05;46.67;;;;;;;;;;5053799;28;20029;-64
2020/12/21 09:17:17;;;;;;;72.45;45.85;;;;;;;;;;5053786;28;20439;-64
2020/12/21 09:19:43;;;;;;;73.80;44.65;;;;;;;;;;5053615;28;20036;-64
2020/12/21 09:22:10;;;;;;;77.57;48.97;;;;;;;;;;5053473;28;20500;-64
2020/12/21 09:24:36;;;;;;;82.75;49.08;;;;;;;;;;5035546;28;20036;-64
2020/12/21 09:27:02;;;;;;;77.18;46.08;;;;;;;;;;5053422;28;20037;-64
2020/12/21 09:29:28;;;;;;;84.22;53.08;;;;;;;;;;5053413;28;20099;-64
2020/12/21 09:31:54;;;;;;;89.80;54.97;;;;;;;;;;5052428;28;20053;-65
2020/12/21 09:34:20;;;;;;;90.63;55.05;;;;;;;;;;5052834;28;20032;-64
2020/12/21 09:36:47;;;;;;;79.32;49.03;;;;;;;;;;5052390;28;20558;-64
2020/12/21 09:39:13;;;;;;;80.05;49.33;;;;;;;;;;5034837;28;20389;-65
2020/12/21 09:41:39;;;;;;;81.90;48.40;;;;;;;;;;5034406;28;20036;-64
2020/12/21 09:44:05;;;;;;;79.82;48.60;;;;;;;;;;5052221;28;20051;-64
2020/12/21 09:46:31;;;;;;;90.07;53.42;;;;;;;;;;5051352;28;20947;-64
2020/12/21 09:49:03;;;;;;;88.20;50.88;;;;;;;;;;5050509;28;20035;-62
2020/12/21 09:51:29;;;;;;;83.80;48.65;;;;;;;;;;5046584;28;20037;-64
2020/12/21 09:53:55;;;;;;;83.45;47.97;;;;;;;;;;5051762;28;20033;-64
2020/12/21 09:56:21;;;;;;;91.03;50.35;;;;;;;;;;5052343;28;20104;-63
2020/12/21 09:58:47;;;;;;;87.93;48.25;;;;;;;;;;5052223;28;20112;-64
2020/12/21 10:01:13;;;;;;;85.63;47.83;;;;;;;;;;5052328;28;20414;-64
2020/12/21 10:03:40;;;;;;;87.15;48.03;;;;;;;;;;5052475;28;20021;-65
2020/12/21 10:06:10;;;;;;;86.18;46.28;;;;;;;;;;5051946;28;20037;-64
2020/12/21 10:08:40;;;;;;;81.85;46.53;;;;;;;;;;5052364;28;20112;-65
2020/12/21 10:11:06;;;;;;;89.60;48.90;;;;;;;;;;5052027;28;20025;-64
2020/12/21 10:13:32;;;;;;;89.38;48.22;;;;;;;;;;5052062;28;20074;-65
2020/12/21 10:15:58;;;;;;;87.57;48.20;;;;;;;;;;5052634;28;20385;-63
2020/12/21 10:18:25;;;;;;;84.75;48.15;;;;;;;;;;5055626;28;20025;-64
2020/12/21 10:20:51;;;;;;;86.20;49.40;;;;;;;;;;5055788;28;20119;-65
2020/12/21 10:23:17;;;;;;;91.95;50.50;;;;;;;;;;5055587;28;20024;-64
2020/12/21 10:25:43;;;;;;;84.70;48.10;;;;;;;;;;5055387;28;20525;-64
2020/12/21 10:28:09;;;;;;;84.18;47.72;;;;;;;;;;5055280;28;20417;-65
2020/12/21 10:30:35;;;;;;;86.55;47.63;;;;;;;;;;5027985;28;802217;-64
2020/12/21 10:33:01;;;;;;;79.28;44.70;;;;;;;;;;5056968;28;20480;-64
2020/12/21 10:35:28;;;;;;;81.78;44.60;;;;;;;;;;5056841;28;20060;-64
2020/12/21 10:37:55;;;;;;;79.45;44.72;;;;;;;;;;5056818;28;20107;-64
2020/12/21 10:40:21;;;;;;;85.53;47.33;;;;;;;;;;5056648;28;20032;-64
2020/12/21 10:42:47;;;;;;;95.38;49.97;;;;;;;;;;5056418;28;20159;-64
2020/12/21 10:45:13;;;;;;;89.43;49.45;;;;;;;;;;5056453;28;20032;-64
2020/12/21 10:47:39;;;;;;;86.10;46.58;;;;;;;;;;5056453;28;20036;-64
2020/12/21 10:50:05;;;;;;;91.15;50.35;;;;;;;;;;5056531;28;20029;-64
2020/12/21 10:52:31;;;;;;;84.82;46.88;;;;;;;;;;5056277;28;20025;-64
2020/12/21 10:54:57;;;;;;;89.45;48.13;;;;;;;;;;5055726;28;20067;-63
2020/12/21 10:57:24;;;;;;;82.38;45.17;;;;;;;;;;5056345;28;20032;-64
2020/12/21 10:59:50;;;;;;;72.20;40.20;;;;;;;;;;5056353;28;20021;-64
2020/12/21 11:02:16;;;;;;;74.00;37.47;;;;;;;;;;5056174;28;20401;-64
2020/12/21 11:04:44;;;;;;;68.03;35.40;;;;;;;;;;5056374;28;20036;-64
2020/12/21 11:07:10;;;;;;;70.57;33.92;;;;;;;;;;5056028;28;20032;-63
2020/12/21 11:09:36;;;;;;;65.82;35.55;;;;;;;;;;5056225;28;20025;-63
2020/12/21 11:12:03;;;;;;;61.20;32.92;;;;;;;;;;5056011;28;20102;-64
2020/12/21 11:14:29;;;;;;;67.07;34.35;;;;;;;;;;5055983;28;20021;-64
2020/12/21 11:16:57;;;;;;;69.28;34.97;;;;;;;;;;5055847;28;20107;-64
2020/12/21 11:19:23;;;;;;;87.57;42.72;;;;;;;;;;5055708;28;20406;-65
2020/12/21 11:21:50;;;;;;;66.90;34.03;;;;;;;;;;5055633;28;20021;-65
2020/12/21 11:24:16;;;;;;;65.63;34.00;;;;;;;;;;5055806;28;20036;-63
2020/12/21 11:26:42;;;;;;;65.35;32.90;;;;;;;;;;5055070;28;20120;-65
2020/12/21 11:29:08;;;;;;;64.60;32.80;;;;;;;;;;5055638;28;20056;-65
2020/12/21 11:31:38;;;;;;;67.00;35.50;;;;;;;;;;5055382;28;20056;-64
2020/12/21 11:34:04;;;;;;;66.32;32.75;;;;;;;;;;5055554;28;20099;-65
2020/12/21 11:36:31;;;;;;;66.88;33.00;;;;;;;;;;5055480;28;20025;-64
2020/12/21 11:38:57;;;;;;;70.63;35.35;;;;;;;;;;5055350;28;20024;-64
2020/12/21 11:41:28;;;;;;;70.60;36.53;;;;;;;;;;5055463;28;20592;-64
2020/12/21 11:43:55;;;;;;;65.68;34.92;;;;;;;;;;5055516;28;20024;-64
2020/12/21 11:46:21;;;;;;;61.75;33.13;;;;;;;;;;5054589;28;20044;-63
2020/12/21 11:48:48;;;;;;;71.47;36.35;;;;;;;;;;5037333;28;20465;-63
2020/12/21 11:51:17;;;;;;;67.22;34.78;;;;;;;;;;5055247;28;20033;-63
2020/12/21 11:53:43;;;;;;;72.95;35.15;;;;;;;;;;5055248;28;20048;-64
2020/12/21 11:56:09;;;;;;;69.57;33.80;;;;;;;;;;5055464;28;20035;-64
2020/12/21 11:58:35;;;;;;;62.50;34.88;;;;;;;;;;5055124;28;20036;-63
2020/12/21 12:01:01;;;;;;;64.53;33.42;;;;;;;;;;5054964;28;20028;-63
2020/12/21 12:03:27;;;;;;;68.90;33.95;;;;;;;;;;5055354;28;20381;-64
2020/12/21 12:05:53;;;;;;;64.63;34.40;;;;;;;;;;5055155;28;20033;-63
2020/12/21 12:08:20;;;;;;;68.93;37.13;;;;;;;;;;5054812;28;20027;-63
2020/12/21 12:10:46;;;;;;;64.28;34.63;;;;;;;;;;5054539;28;20043;-63
2020/12/21 12:13:12;;;;;;;65.45;33.92;;;;;;;;;;5054848;28;20102;-63
2020/12/21 12:15:38;;;;;;;64.35;34.20;;;;;;;;;;5054877;28;20021;-64
2020/12/21 12:18:04;;;;;;;62.30;33.45;;;;;;;;;;5054972;28;20025;-66
2020/12/21 12:20:30;;;;;;;65.57;33.53;;;;;;;;;;5054874;28;20108;-63
2020/12/21 12:22:56;;;;;;;64.15;33.00;;;;;;;;;;5054608;28;20453;-63
2020/12/21 12:25:22;;;;;;;71.75;36.70;;;;;;;;;;5054356;28;20470;-63
2020/12/21 12:27:48;;;;;;;97.32;43.67;;;;;;;;;;5054626;28;20029;-63
2020/12/21 12:30:15;;;;;;;85.47;40.47;;;;;;;;;;5054220;28;20049;-63
2020/12/21 12:32:41;;;;;;;103.93;43.30;;;;;;;;;;5054645;28;20025;-64
2020/12/21 12:35:07;;;;;;;66.53;33.35;;;;;;;;;;5054238;28;20358;-63
2020/12/21 12:37:33;;;;;;;59.63;33.63;;;;;;;;;;5054219;28;20017;-63
2020/12/21 12:39:59;;;;;;;76.22;37.60;;;;;;;;;;5053450;28;20047;-62
2020/12/21 12:42:26;;;;;;;71.20;36.03;;;;;;;;;;5054091;28;20033;-62
2020/12/21 12:44:52;;;;;;;86.90;41.95;;;;;;;;;;5054668;28;20017;-62
2020/12/21 12:47:18;;;;;;;73.72;36.60;;;;;;;;;;5054292;28;20116;-62
2020/12/21 12:49:44;;;;;;;64.95;34.25;;;;;;;;;;5054103;28;20083;-64
2020/12/21 12:52:10;;;;;;;74.97;37.15;;;;;;;;;;5053808;28;20074;-64
2020/12/21 12:54:37;;;;;;;63.90;33.40;;;;;;;;;;5053791;28;20116;-63
2020/12/21 12:57:03;;;;;;;62.55;34.33;;;;;;;;;;5049528;28;20082;-63
2020/12/21 12:59:29;;;;;;;67.90;34.05;;;;;;;;;;5052195;28;20053;-64
2020/12/21 13:01:55;;;;;;;58.30;32.55;;;;;;;;;;5051885;28;20055;-64
2020/12/21 13:04:21;;;;;;;56.38;30.70;;;;;;;;;;5052394;28;20053;-64
2020/12/21 13:06:48;;;;;;;53.78;29.23;;;;;;;;;;5051721;28;20067;-64
2020/12/21 13:09:14;;;;;;;54.85;30.73;;;;;;;;;;5052119;28;20466;-63
2020/12/21 13:11:40;;;;;;;56.35;31.20;;;;;;;;;;5052307;28;20371;-64
2020/12/21 13:14:06;;;;;;;59.75;32.40;;;;;;;;;;5052149;28;20037;-64
2020/12/21 13:16:38;;;;;;;60.40;33.42;;;;;;;;;;5052112;28;20079;-64
2020/12/21 13:19:04;;;;;;;64.22;33.53;;;;;;;;;;5052229;28;20080;-64
2020/12/21 13:21:32;;;;;;;57.97;32.08;;;;;;;;;;5052149;28;20027;-64
2020/12/21 13:24:00;;;;;;;58.67;31.35;;;;;;;;;;5052226;28;20028;-64
2020/12/21 13:26:26;;;;;;;72.15;34.63;;;;;;;;;;5050432;28;20045;-64
2020/12/21 13:28:52;;;;;;;65.22;33.20;;;;;;;;;;5049463;28;20037;-63
2020/12/21 13:31:20;;;;;;;64.55;33.03;;;;;;;;;;5048952;28;20452;-63
2020/12/21 13:33:47;;;;;;;57.47;30.92;;;;;;;;;;5049278;28;20634;-63
2020/12/21 13:36:14;;;;;;;60.90;33.78;;;;;;;;;;5048556;28;20082;-64
2020/12/21 13:38:40;;;;;;;65.95;32.55;;;;;;;;;;5048455;28;20029;-64
2020/12/21 13:41:07;;;;;;;70.40;33.92;;;;;;;;;;5049170;28;20378;-63
2020/12/21 13:43:33;;;;;;;66.15;34.05;;;;;;;;;;5049092;28;20032;-64
2020/12/21 13:45:59;;;;;;;66.03;35.45;;;;;;;;;;5048542;28;20047;-64
2020/12/21 13:48:26;;;;;;;65.28;33.97;;;;;;;;;;5048710;28;20021;-64
2020/12/21 13:50:52;;;;;;;65.38;35.03;;;;;;;;;;5048850;28;20053;-64
2020/12/21 13:53:18;;;;;;;73.10;38.65;;;;;;;;;;5048596;28;20029;-62
2020/12/21 13:55:44;;;;;;;67.75;36.97;;;;;;;;;;5030875;28;20039;-65
2020/12/21 13:58:10;;;;;;;65.18;34.58;;;;;;;;;;5049044;28;20033;-65
2020/12/21 14:00:36;;;;;;;69.10;36.45;;;;;;;;;;5048457;28;20473;-64
2020/12/21 14:03:03;;;;;;;67.70;36.28;;;;;;;;;;5048581;28;20060;-65
2020/12/21 14:05:29;;;;;;;66.22;37.05;;;;;;;;;;5030246;28;20128;-64
2020/12/21 14:07:55;;;;;;;69.80;36.60;;;;;;;;;;5048703;28;20139;-65
2020/12/21 14:10:21;;;;;;;66.35;36.33;;;;;;;;;;5048407;28;20029;-64
2020/12/21 14:12:47;;;;;;;72.07;35.35;;;;;;;;;;5048594;28;20131;-64
2020/12/21 14:15:13;;;;;;;65.63;35.30;;;;;;;;;;5048557;28;20029;-65